Flight Track Log - Related Links

Times and Time Zones

All times are in EDT time to prevent confusion due to time zone crossing. See the EJA839 flight status page for this flight to view local times or setup timezone preferences in your user account.

Time Position Orientation Groundspeed Altitude Reporting Facility
EDT Latitude Longitude Course Direction KTS MPH feet Rate Location/Type
Wed 09:58:34 AM 41.7500 -71.4633 310° West 186 214 2,300  Level Boston Center
Wed 09:59:28 AM 41.7797 -71.5103 310° West 189 217 4,100 2,353 Climbing Boston Center
Wed 10:00:16 AM 41.8236 -71.5458 329° Northwest 269 310 6,300 3,167 Climbing Boston Center
Wed 10:01:16 AM 41.8719 -71.5703 339° North 219 252 9,800 2,750 Climbing Boston Center
Wed 10:02:16 AM 41.8975 -71.6592 291° West 216 249 11,800 2,050 Climbing Boston Center
Wed 10:03:16 AM 41.9317 -71.7647 294° West 259 298 13,900 2,500 Climbing Boston Center
Wed 10:05:16 AM 41.9889 -71.9847 289° West 313 360 19,300 2,833 Climbing Boston Center
Wed 10:06:16 AM 42.0144 -72.0908 288° West 313 360 22,400 3,100 Climbing Boston Center
Wed 10:07:16 AM 42.0208 -72.1969 275° West 300 345 25,500 2,150 Climbing Boston Center
Wed 10:08:16 AM 42.0147 -72.2836 265° West 293 337 26,700 1,250 Climbing Boston Center
Wed 10:09:16 AM 42.0044 -72.4289 265° West 311 358 28,000 591 Climbing Boston Center
Wed 10:10:28 AM 41.9919 -72.5936 264° West 351 404 28,000  Level Boston Center
Wed 10:11:28 AM 41.9833 -72.7333 265° West 373 429 28,000  Level Boston Center
Wed 10:12:40 AM 41.9389 -72.9006 250° West 392 451 28,000  Level Boston Center
Wed 10:13:40 AM 41.8633 -73.0256 231° Southwest 412 474 28,000  Level Boston Center
Wed 10:14:40 AM 41.7894 -73.1556 233° Southwest 412 474 28,000  Level Boston Center
Wed 10:15:40 AM 41.7328 -73.2467 230° Southwest 412 474 28,000  Level Boston Center
Wed 10:18:04 AM 41.5583 -73.5353 231° Southwest 394 453 28,000  Level New York Center
Wed 10:19:05 AM 41.4867 -73.6514 231° Southwest 399 459 28,000  Level New York Center
Wed 10:20:03 AM 41.4194 -73.7672 232° Southwest 405 466 28,000  Level New York Center
Wed 10:21:03 AM 41.3456 -73.8856 230° Southwest 410 472 28,000  Level New York Center
Wed 10:22:03 AM 41.2758 -73.9983 231° Southwest 410 472 28,000  Level New York Center
Wed 10:23:04 AM 41.2039 -74.1161 231° Southwest 415 478 28,000  Level New York Center
Wed 10:24:05 AM 41.1319 -74.2256 229° Southwest 415 478 28,000  Level New York Center
Wed 10:25:03 AM 41.0619 -74.3375 230° Southwest 410 472 28,000  Level New York Center
Wed 10:26:04 AM 40.9939 -74.4522 232° Southwest 405 466 28,000  Level New York Center
Wed 10:27:05 AM 40.9239 -74.5581 229° Southwest 400 460 28,000  Level New York Center
Wed 10:28:03 AM 40.8758 -74.6844 243° Southwest 392 451 28,000  Level New York Center
Wed 10:29:03 AM 40.8300 -74.8133 245° Southwest 386 444 28,000  Level New York Center
Wed 10:30:03 AM 40.7714 -74.9414 239° Southwest 391 450 28,000  Level New York Center
Wed 10:31:03 AM 40.7128 -75.0639 238° Southwest 396 456 28,000  Level New York Center
Wed 10:32:04 AM 40.6539 -75.1886 238° Southwest 396 456 28,000  Level New York Center
Wed 10:33:05 AM 40.5972 -75.3108 239° Southwest 396 456 28,000  Level New York Center
Wed 10:34:03 AM 40.5361 -75.4350 237° Southwest 396 456 28,000 -605 Level New York Center
Wed 10:35:04 AM 40.4792 -75.5542 238° Southwest 396 456 26,800 -1,736 Descending New York Center
Wed 10:36:04 AM 40.4222 -75.6756 238° Southwest 396 456 24,500 -2,218 Descending New York Center
Wed 10:37:03 AM 40.3672 -75.7914 238° Southwest 390 449 22,400 -2,150 Descending New York Center
Wed 10:38:04 AM 40.3036 -75.9122 235° Southwest 379 436 20,200 -1,180 Descending New York Center
Wed 10:39:05 AM 40.2511 -76.0169 237° Southwest 374 430 20,000 -150 Descending New York Center
Wed 10:40:04 AM 40.2003 -76.1272 239° Southwest 362 417 19,900 -600 Descending New York Center
Wed 10:41:05 AM 40.1497 -76.2319 238° Southwest 352 405 18,800 -1,109 Descending New York Center
Wed 10:42:03 AM 40.1036 -76.3261 237° Southwest 345 397 17,700 -915 Descending New York Center
Wed 10:43:03 AM 40.0500 -76.4439 239° Southwest 340 391 17,000 -344 Descending New York Center
Wed 10:44:05 AM 40.0033 -76.5458 239° Southwest 340 391 17,000  Level New York Center
Wed 10:45:03 AM 39.9592 -76.6369 238° Southwest 340 391 17,000 -559 Level New York Center
Wed 10:46:03 AM 39.9100 -76.7494 240° Southwest 340 391 15,900 -678 Descending New York Center
Wed 10:48:00 AM 39.8167 -76.9333 237° Southwest 301 346 15,000 -271 Descending Potomac TRACON
Wed 10:49:00 AM 39.7833 -77.0333 247° West 278 320 15,100  Climbing Potomac TRACON
Wed 10:50:00 AM 39.8167 -77.1167 298° West 273 314 15,000 -991 Descending Potomac TRACON
Wed 10:50:55 AM 39.8167 -77.2167 270° West 279 321 13,200 -2,035 Descending Potomac TRACON
Wed 10:51:55 AM 39.7667 -77.2667 218° Southwest 283 326 11,100 -1,684 Descending Potomac TRACON
Wed 10:52:49 AM 39.7000 -77.3000 201° Southwest 262 302 10,000 -900 Descending Potomac TRACON
Wed 10:53:55 AM 39.6167 -77.3333 197° South 276 318 9,300 -992 Descending Potomac TRACON
Wed 10:54:50 AM 39.5667 -77.3833 218° Southwest 272 313 8,000 -1,200 Descending Potomac TRACON
Wed 10:55:50 AM 39.5000 -77.4333 210° Southwest 251 289 7,000 -500 Descending Potomac TRACON
Wed 10:56:50 AM 39.4333 -77.4500 191° South 249 287 7,000 -150 Level Potomac TRACON
Wed 10:57:50 AM 39.3667 -77.4500 180° South 254 292 6,700 -893 Descending Potomac TRACON
Wed 10:58:51 AM 39.3000 -77.4500 180° South 250 288 5,200 -1,339 Descending Potomac TRACON
Wed 10:59:51 AM 39.2333 -77.4500 180° South 263 303 4,000 -1,050 Descending Potomac TRACON
Wed 11:00:51 AM 39.1667 -77.4500 180° South 234 269 3,100 -450 Descending Potomac TRACON
Wed 11:01:51 AM 39.1167 -77.4500 180° South 160 184 3,100 -400 Level Potomac TRACON
Wed 11:02:51 AM 39.0667 -77.4500 180° South 173 199 2,300 -887 Descending Potomac TRACON
Wed 11:03:46 AM 39.0333 -77.4500 180° South 138 159 1,400 -835 Descending Potomac TRACON
Wed 11:04:46 AM 38.9833 -77.4667 195° South 126 145 700 -700 Descending Potomac TRACON
Wed 11:06:00 AM 38.9474 -77.4599 180° South  Level Estimated
Wed 11:13:00 AM 38.9474 -77.4599 349° North  Level Estimated
Wed 11:14:00 AM 38.9474 -77.4599 349° North  Level Estimated
Wed 11:15:00 AM 38.9474 -77.4599 349° North  Level Estimated

Login

Don't have an account? Register now (free) for customized features, flight alerts, and more!